• Join FlightAware (Why Join?)
  • Login
  • US Flag 
05:17AM EST


 

Airport Tracker/Info


-or-


 

Live Flight TrackerFlight Track Log ✈ CSZ9923 ✈ 23-Jul-2014 ✈ ZGSZ / SZX - ZUUU / CTU

Flight Track Log - Related Links

Times and Time Zones

All times are in EDT time to prevent confusion due to time zone crossing. See the CSZ9923 flight status page for this flight to view local times or setup timezone preferences in your user account.

Time Position Orientation Groundspeed Altitude Reporting Facility
EDT Latitude Longitude Course Direction KTS MPH feet Rate Location/Type
10:52AM 23.0041 113.4033 314° West  Level Estimated
10:53AM 23.0769 113.3212 314° West  Level Estimated
10:54AM 23.1497 113.2390 314° West  Level Estimated
10:55AM 23.2224 113.1567 314° West  Level Estimated
10:56AM 23.2951 113.0744 314° West  Level Estimated
10:57AM 23.3677 112.9919 314° West  Level Estimated
10:58AM 23.4403 112.9094 314° West  Level Estimated
10:59AM 23.5128 112.8267 314° West  Level Estimated
11:00AM 23.5853 112.7440 314° West  Level Estimated
11:01AM 23.6578 112.6612 314° West  Level Estimated
11:02AM 23.7302 112.5783 314° West  Level Estimated
11:03AM 23.8025 112.4953 314° West  Level Estimated
11:04AM 23.8749 112.4122 314° West  Level Estimated
11:05AM 23.9472 112.3290 314° West  Level Estimated
11:06AM 24.0194 112.2457 314° West  Level Estimated
11:07AM 24.0916 112.1624 313° West  Level Estimated
11:08AM 24.1637 112.0789 313° West  Level Estimated
11:09AM 24.2358 111.9954 313° West  Level Estimated
11:10AM 24.3079 111.9117 313° West  Level Estimated
11:11AM 24.3799 111.8279 313° West  Level Estimated
11:12AM 24.4518 111.7441 313° West  Level Estimated
11:13AM 24.5238 111.6602 313° West  Level Estimated
11:14AM 24.5956 111.5761 313° West  Level Estimated
11:15AM 24.6674 111.4920 313° West  Level Estimated
11:16AM 24.7392 111.4078 313° West  Level Estimated
11:17AM 24.8109 111.3234 313° West  Level Estimated
11:18AM 24.8826 111.2390 313° West  Level Estimated
11:19AM 24.9543 111.1545 313° West  Level Estimated
11:20AM 25.0258 111.0699 313° West  Level Estimated
11:21AM 25.0974 110.9852 313° West  Level Estimated
11:22AM 25.1689 110.9003 313° West  Level Estimated
11:23AM 25.2403 110.8154 313° West  Level Estimated
11:24AM 25.3117 110.7304 313° West  Level Estimated
11:25AM 25.3830 110.6453 313° West  Level Estimated
11:26AM 25.4543 110.5601 313° West  Level Estimated
11:27AM 25.5256 110.4747 313° West  Level Estimated
11:28AM 25.5968 110.3893 313° West  Level Estimated
11:29AM 25.6679 110.3038 313° West  Level Estimated
11:30AM 25.7390 110.2182 313° West  Level Estimated
11:31AM 25.8100 110.1324 313° West  Level Estimated
11:32AM 25.8811 110.0466 313° West  Level Estimated
11:33AM 25.9520 109.9607 313° West  Level Estimated
11:34AM 26.0229 109.8746 313° West  Level Estimated
11:35AM 26.0937 109.7885 312° West  Level Estimated
11:36AM 26.1645 109.7023 312° West  Level Estimated
11:37AM 26.2353 109.6159 312° West  Level Estimated
11:38AM 26.3060 109.5294 312° West  Level Estimated
11:39AM 26.3766 109.4429 312° West  Level Estimated
11:40AM 26.4472 109.3562 312° West  Level Estimated
11:41AM 26.5177 109.2694 312° West  Level Estimated
11:42AM 26.5882 109.1826 312° West  Level Estimated
11:43AM 26.6586 109.0956 312° West  Level Estimated
11:44AM 26.7290 109.0085 312° West  Level Estimated
11:45AM 26.7993 108.9213 312° West  Level Estimated
11:46AM 26.8696 108.8340 312° West  Level Estimated
11:47AM 26.9398 108.7466 312° West  Level Estimated
11:48AM 27.0099 108.6590 312° West  Level Estimated
11:49AM 27.0800 108.5714 312° West  Level Estimated
11:50AM 27.1501 108.4837 312° West  Level Estimated
11:51AM 27.2201 108.3958 312° West  Level Estimated
11:52AM 27.2900 108.3078 312° West  Level Estimated
11:53AM 27.3599 108.2198 312° West  Level Estimated
11:54AM 27.4297 108.1316 312° West  Level Estimated
11:55AM 27.4995 108.0433 312° West  Level Estimated
11:56AM 27.5692 107.9549 312° West  Level Estimated
11:57AM 27.6389 107.8663 312° West  Level Estimated
11:58AM 27.7085 107.7777 312° West  Level Estimated
11:59AM 27.7780 107.6889 312° West  Level Estimated
12:00PM 27.8475 107.6001 312° West  Level Estimated
12:01PM 27.9170 107.5111 311° West  Level Estimated
12:02PM 27.9864 107.4220 311° West  Level Estimated
12:03PM 28.0557 107.3328 311° West  Level Estimated
12:04PM 28.1250 107.2435 311° West  Level Estimated
12:05PM 28.1942 107.1540 311° West  Level Estimated
12:06PM 28.2633 107.0645 311° West  Level Estimated
12:07PM 28.3324 106.9748 311° West  Level Estimated
12:08PM 28.4014 106.8850 311° West  Level Estimated
12:09PM 28.4704 106.7951 311° West  Level Estimated
12:10PM 28.5393 106.7051 311° West  Level Estimated
12:11PM 28.6082 106.6150 311° West  Level Estimated
12:12PM 28.6770 106.5247 311° West  Level Estimated
12:13PM 28.7457 106.4343 311° West  Level Estimated
12:14PM 28.8144 106.3438 311° West  Level Estimated
12:15PM 28.8830 106.2532 311° West  Level Estimated
12:16PM 28.9515 106.1625 311° West  Level Estimated
12:17PM 29.0200 106.0716 311° West  Level Estimated
12:18PM 29.0884 105.9807 311° West  Level Estimated
12:19PM 29.1568 105.8896 311° West  Level Estimated
12:20PM 29.2251 105.7984 311° West  Level Estimated
12:21PM 29.2934 105.7070 311° West  Level Estimated
12:22PM 29.3615 105.6156 311° West  Level Estimated
12:23PM 29.4297 105.5240 311° West  Level Estimated
12:24PM 29.4977 105.4323 310° West  Level Estimated
12:25PM 29.5657 105.3404 310° West  Level Estimated
12:26PM 29.6336 105.2485 310° West  Level Estimated
12:27PM 29.7015 105.1564 310° West  Level Estimated
12:28PM 29.7693 105.0642 310° West  Level Estimated
12:29PM 29.8371 104.9719 310° West  Level Estimated
12:30PM 29.9047 104.8794 310° West  Level Estimated
12:31PM 29.9723 104.7869 310° West  Level Estimated
12:32PM 30.0399 104.6942 310° West  Level Estimated
12:33PM 30.1074 104.6013 310° West  Level Estimated
12:34PM 30.1748 104.5084 310° West  Level Estimated
12:35PM 30.2421 104.4153 310° West  Level Estimated
12:36PM 30.3094 104.3221 310° West  Level Estimated
12:37PM 30.3766 104.2288 310° West  Level Estimated
12:38PM 30.4438 104.1353 310° West  Level Estimated
12:39PM 30.5109 104.0417 310° West  Level Estimated
12:40PM 30.5779 103.9480 310° West  Level Estimated
12:41PM 30.5785 103.9471 310° West  Level Estimated
12:42PM 30.5785 103.9471 North  Level Estimated
12:43PM 30.5785 103.9471 North  Level Estimated
12:44PM 30.5785 103.9471 North  Level Estimated
12:45PM 30.5785 103.9471 North  Level Estimated
12:46PM 30.5785 103.9471 North  Level Estimated
12:47PM 30.5785 103.9471 North  Level Estimated
12:48PM 30.5785 103.9471 North  Level Estimated
12:49PM 30.5785 103.9471 North  Level Estimated
12:50PM 30.5785 103.9471 North  Level Estimated
12:51PM 30.5785 103.9471 North  Level Estimated
12:52PM 30.5785 103.9471 North  Level Estimated
12:53PM 30.5785 103.9471 North  Level Estimated
12:54PM 30.5785 103.9471 North  Level Estimated
12:55PM 30.5785 103.9471 North  Level Estimated
12:56PM 30.5785 103.9471 North  Level Estimated